SOUTH DOUGLAS AK US NWS current weather conditions

sailwx.info

Wind from 270 at 27 knots gusting 27

Air temperature -6.1° C
Dewpoint -16.1° C

Last reported at 2020-Jan-18 13:26 UTC.
Time now 2020-Jan-18 14:15 UTC

Location: N 58°17' W 134°23'.
View on Google Maps.

See reports from other nearby stations

  
Tides and Currents Weather Stations Pressure Air Temp Water Temp Dewpoint Dewpoint Depression Visibility Wind Speed Wind Dir Waves Ship Positions
date/time (UTC)wind fromknots sea level pressurealtimeterstation pressurevisibilityair tempwater tempwave heightnotes
2020-Jan-18 13:26 270 27 gusting 27 -6.1
2020-Jan-18 13:08 277 23 gusting 41 -6.1
2020-Jan-18 12:48 275 13 gusting 20 -6.1
2020-Jan-18 12:28 278 21 gusting 24 -6.1
2020-Jan-18 12:08 278 12 gusting 16 -7.2
2020-Jan-18 11:48 319 5 gusting 6 -7.8
2020-Jan-18 11:28 302 4 gusting 5 -7.8
2020-Jan-18 11:08 333 3 gusting 7 -8.3
2020-Jan-18 10:48 334 11 gusting 11 -8.3
2020-Jan-18 10:28 306 3 gusting 5 -8.9
2020-Jan-18 10:08 329 3 gusting 5 -8.9
2020-Jan-18 09:48 292 6 gusting 13 -7.8
2020-Jan-18 09:28 321 6 gusting 6 -8.9
2020-Jan-18 09:08 290 13 gusting 19 -7.8
2020-Jan-18 08:48 280 19 gusting 30 -7.8
2020-Jan-18 08:28 282 21 gusting 26 -7.8
2020-Jan-18 08:08 278 24 gusting 28 -7.8
2020-Jan-18 07:48 281 24 gusting 28 -7.8
2020-Jan-18 07:28 097 26 gusting 28 -7.8
2020-Jan-18 07:08 082 26 gusting 28 -7.8
2020-Jan-18 06:48 078 24 gusting 27 -8.3
2020-Jan-18 06:28 073 31 gusting 31 -7.8
2020-Jan-18 06:08 076 21 gusting 21 -8.3
2020-Jan-18 05:48 079 16 gusting 22 -7.8
2020-Jan-18 05:28 105 9 gusting 13 -8.9
2020-Jan-18 05:08 223 3 gusting 8 -9.4
2020-Jan-18 04:48 049 13 gusting 13 -8.9
2020-Jan-18 04:28 051 2 gusting 5 -8.9
2020-Jan-18 04:08 007 2 gusting 10 -9.4
2020-Jan-18 03:48 073 13 gusting 17 -8.3
2020-Jan-18 03:28 075 15 gusting 15 -8.3
2020-Jan-18 03:08 072 18 gusting 18 -8.3
2020-Jan-18 02:48 067 17 gusting 19 -8.3
2020-Jan-18 02:28 097 12 gusting 21 -8.9
2020-Jan-18 02:08 072 19 gusting 20 -8.9
2020-Jan-18 01:48 077 20 gusting 25 -8.9
2020-Jan-18 01:28 093 21 gusting 22 -8.9
2020-Jan-18 01:08 094 15 gusting 19 -8.3
2020-Jan-18 00:48 043 18 gusting 18 -7.8
2020-Jan-18 00:28 080 21 gusting 21 -7.8
2020-Jan-18 00:08 076 17 gusting 20 -7.8
2020-Jan-17 23:48 076 15 gusting 20 -8.3
2020-Jan-17 23:28 101 22 gusting 22 -8.9
2020-Jan-17 23:08 105 19 gusting 21 -8.9
2020-Jan-17 22:48 072 22 gusting 24 -8.9
2020-Jan-17 22:28 075 25 gusting 25 -8.9
2020-Jan-17 22:08 079 16 gusting 25 -8.9
2020-Jan-17 21:48 072 15 gusting 22 -8.9
2020-Jan-17 21:28 071 20 gusting 21 -8.9
2020-Jan-17 21:08 081 23 gusting 23 -8.9
2020-Jan-17 20:48 084 19 gusting 19 -8.9
2020-Jan-17 20:28 065 20 gusting 20 -8.9
2020-Jan-17 20:08 079 16 gusting 21 -8.9
2020-Jan-17 19:46 087 14 gusting 20 -8.9
2020-Jan-17 19:28 083 21 gusting 21 -9.4
2020-Jan-17 19:08 103 9 gusting 24 -9.4
2020-Jan-17 18:48 083 21 gusting 21 -9.4
2020-Jan-17 18:28 070 21 gusting 21 -9.4
2020-Jan-17 18:08 083 18 gusting 18 -9.4
2020-Jan-17 17:48 077 23 gusting 25 -9.4
2020-Jan-17 17:28 086 13 gusting 19 -9.4
2020-Jan-17 17:08 051 22 gusting 22 -9.4
2020-Jan-17 16:48 049 19 gusting 23 -9.4
2020-Jan-17 16:28 031 18 gusting 20 -9.4
2020-Jan-17 16:08 033 13 gusting 19 -9.4
2020-Jan-17 15:48 067 15 gusting 19 -9.4
2020-Jan-17 15:28 061 12 gusting 20 -8.9
2020-Jan-17 15:08 044 23 gusting 26 -8.9
2020-Jan-17 14:48 061 20 gusting 21 -8.9
2020-Jan-17 14:28 047 28 gusting 28 -8.9
2020-Jan-17 14:08 270 15 gusting 27 -9.4
2020-Jan-17 13:48 269 19 gusting 26 -9.4
2020-Jan-17 13:26 276 19 gusting 20 -8.9
2020-Jan-17 13:08 274 17 gusting 25 -9.4
2020-Jan-17 12:48 275 14 gusting 23 -9.4
2020-Jan-17 12:28 267 20 gusting 26 -9.4
2020-Jan-17 12:08 271 19 gusting 26 -8.9
2020-Jan-17 11:48 270 25 gusting 25 -9.4
2020-Jan-17 11:28 267 27 gusting 28 -9.4
2020-Jan-17 11:08 268 21 gusting 26 -9.4
2020-Jan-17 10:48 271 23 gusting 23 -9.4
2020-Jan-17 10:26 268 16 gusting 27 -9.4
2020-Jan-17 10:08 265 24 gusting 24 -8.9
2020-Jan-17 09:48 267 24 gusting 24 -8.9
2020-Jan-17 09:28 273 21 gusting 23 -8.9
2020-Jan-17 09:08 269 22 gusting 22 -8.9
2020-Jan-17 08:48 268 15 gusting 25 -9.4
2020-Jan-17 08:28 270 23 gusting 23 -8.9
2020-Jan-17 08:06 266 23 gusting 25 -9.4
2020-Jan-17 07:48 269 21 gusting 26 -8.9
2020-Jan-17 07:28 273 26 gusting 26 -8.9
2020-Jan-17 07:08 274 20 gusting 27 -8.3
2020-Jan-17 06:48 266 20 gusting 25 -8.9
2020-Jan-17 06:28 270 26 gusting 26 -8.9
2020-Jan-17 06:08 271 20 gusting 26 -8.9
2020-Jan-17 05:48 267 22 gusting 23 -8.9
2020-Jan-17 05:26 287 19 gusting 26 -8.9
2020-Jan-17 05:08 299 17 gusting 24 -8.9
2020-Jan-17 04:48 344 16 gusting 21 -8.9
2020-Jan-17 04:26 343 16 gusting 19 -8.9
2020-Jan-17 04:08 331 13 gusting 22 -8.3
2020-Jan-17 03:48 328 16 gusting 19 -8.3
2020-Jan-17 03:28 321 3 gusting 6 -8.3
2020-Jan-17 03:08 331 6 gusting 7 -8.9
2020-Jan-17 02:48 331 6 gusting 6 -8.9
2020-Jan-17 02:28 299 5 gusting 13 -8.3
2020-Jan-17 02:06 310 8 gusting 8 -8.9
2020-Jan-17 01:48 328 4 gusting 13 -8.3
2020-Jan-17 01:28 317 4 gusting 7 -8.3
2020-Jan-17 01:08 324 6 gusting 7 -8.3
2020-Jan-17 00:48 324 6 gusting 11 -8.3
2020-Jan-17 00:28 315 10 gusting 10 -8.3
2020-Jan-17 00:08 316 3 gusting 12 -8.3
2020-Jan-16 23:48 320 8 gusting 9 -8.3
2020-Jan-16 23:26 317 10 gusting 10 -8.3
2020-Jan-16 23:08 323 7 gusting 10 -8.3
2020-Jan-16 22:48 320 3 gusting 17 -8.3
2020-Jan-16 22:28 338 13 gusting 13 -8.3
2020-Jan-16 22:08 335 8 gusting 18 -8.3
2020-Jan-16 21:48 329 9 gusting 14 -8.3
2020-Jan-16 21:28 341 19 gusting 19 -8.3
2020-Jan-16 21:06 346 20 gusting 20 -8.3
2020-Jan-16 20:46 335 13 gusting 14 -8.3
2020-Jan-16 20:28 315 10 gusting 21 -7.8
2020-Jan-16 20:08 339 15 gusting 18 -8.3
2020-Jan-16 19:48 343 19 gusting 24 -8.3
2020-Jan-16 19:28 336 10 gusting 23 -8.3
2020-Jan-16 19:08 335 13 gusting 22 -8.3
2020-Jan-16 18:48 332 10 gusting 20 -8.3
2020-Jan-16 18:28 333 11 gusting 23 -8.3
2020-Jan-16 18:08 341 17 gusting 23 -8.3
2020-Jan-16 17:48 334 12 gusting 24 -8.3
2020-Jan-16 17:26 343 17 gusting 23 -7.8
2020-Jan-16 17:08 341 18 gusting 27 -8.3
2020-Jan-16 16:48 333 10 gusting 15 -7.8
2020-Jan-16 16:28 333 14 gusting 19 -8.3
2020-Jan-16 16:08 241 13 gusting 15 -8.3
2020-Jan-16 15:48 335 19 gusting 19 -8.3
2020-Jan-16 15:28 342 19 gusting 21 -7.8
2020-Jan-16 15:08 335 13 gusting 22 -8.3
2020-Jan-16 14:46 334 18 gusting 18 -8.3
2020-Jan-16 14:28 340 9 gusting 13 -7.8
2020-Jan-16 14:08 345 21 gusting 21 -7.8